sensor_id;sensor_type;location;lat;lon;timestamp;pressure;altitude;pressure_sealevel;temperature;humidity
14269;BME280;7218;51.480;7.006;2023-11-21T00:00:40;75652.78;;;-143.00;49.08
14269;BME280;7218;51.480;7.006;2023-11-21T00:03:07;75638.81;;;-143.00;49.03
14269;BME280;7218;51.480;7.006;2023-11-21T00:05:34;75620.84;;;-143.00;48.72
14269;BME280;7218;51.480;7.006;2023-11-21T00:08:01;75626.84;;;-143.00;48.75
14269;BME280;7218;51.480;7.006;2023-11-21T00:10:28;75630.81;;;-143.00;48.42
14269;BME280;7218;51.480;7.006;2023-11-21T00:12:54;75626.84;;;-143.00;48.65
14269;BME280;7218;51.480;7.006;2023-11-21T00:15:21;75620.84;;;-143.00;48.70
14269;BME280;7218;51.480;7.006;2023-11-21T00:17:48;75612.88;;;-143.00;48.74
14269;BME280;7218;51.480;7.006;2023-11-21T00:20:14;75604.88;;;-143.00;48.67
14269;BME280;7218;51.480;7.006;2023-11-21T00:22:43;75594.91;;;-143.00;48.54
14269;BME280;7218;51.480;7.006;2023-11-21T00:25:10;75614.84;;;-143.00;49.04
14269;BME280;7218;51.480;7.006;2023-11-21T00:27:36;75604.88;;;-143.00;48.82
14269;BME280;7218;51.480;7.006;2023-11-21T00:30:04;75570.94;;;-143.00;48.36
14269;BME280;7218;51.480;7.006;2023-11-21T00:32:31;75582.91;;;-143.00;47.98
14269;BME280;7218;51.480;7.006;2023-11-21T00:34:59;75576.94;;;-143.00;48.19
14269;BME280;7218;51.480;7.006;2023-11-21T00:37:25;75582.91;;;-143.00;48.28
14269;BME280;7218;51.480;7.006;2023-11-21T00:39:53;75560.97;;;-143.00;48.09
14269;BME280;7218;51.480;7.006;2023-11-21T00:42:19;75578.94;;;-143.00;48.50
14269;BME280;7218;51.480;7.006;2023-11-21T00:44:48;75578.94;;;-143.00;48.25
14269;BME280;7218;51.480;7.006;2023-11-21T00:47:14;75580.94;;;-143.00;48.60
14269;BME280;7218;51.480;7.006;2023-11-21T00:49:41;75562.97;;;-143.00;48.13
14269;BME280;7218;51.480;7.006;2023-11-21T00:52:09;75572.94;;;-143.00;48.17
14269;BME280;7218;51.480;7.006;2023-11-21T00:54:35;75562.97;;;-143.00;48.22
14269;BME280;7218;51.480;7.006;2023-11-21T00:57:03;75543.00;;;-143.00;48.22
14269;BME280;7218;51.480;7.006;2023-11-21T00:59:30;75568.94;;;-143.00;48.34
14269;BME280;7218;51.480;7.006;2023-11-21T01:01:56;75566.94;;;-143.00;48.49
14269;BME280;7218;51.480;7.006;2023-11-21T01:04:25;75560.97;;;-143.00;48.47
14269;BME280;7218;51.480;7.006;2023-11-21T01:06:52;75568.94;;;-143.00;48.29
14269;BME280;7218;51.480;7.006;2023-11-21T01:09:18;75592.91;;;-143.00;48.72
14269;BME280;7218;51.480;7.006;2023-11-21T01:11:45;75632.81;;;-143.00;48.92
14269;BME280;7218;51.480;7.006;2023-11-21T01:14:13;75578.94;;;-143.00;48.56
14269;BME280;7218;51.480;7.006;2023-11-21T01:16:39;75582.91;;;-143.00;48.82
14269;BME280;7218;51.480;7.006;2023-11-21T01:19:06;75582.91;;;-143.00;48.55
14269;BME280;7218;51.480;7.006;2023-11-21T01:21:32;75582.91;;;-143.00;48.53
14269;BME280;7218;51.480;7.006;2023-11-21T01:23:59;75580.94;;;-143.00;48.67
14269;BME280;7218;51.480;7.006;2023-11-21T01:26:25;75570.94;;;-143.00;48.38
14269;BME280;7218;51.480;7.006;2023-11-21T01:28:52;75590.91;;;-143.00;48.10
14269;BME280;7218;51.480;7.006;2023-11-21T01:31:20;75566.94;;;-143.00;48.19
14269;BME280;7218;51.480;7.006;2023-11-21T01:33:46;75580.94;;;-143.00;48.28
14269;BME280;7218;51.480;7.006;2023-11-21T01:36:13;75564.97;;;-143.00;48.42
14269;BME280;7218;51.480;7.006;2023-11-21T01:38:40;75570.94;;;-143.00;48.16
14269;BME280;7218;51.480;7.006;2023-11-21T01:41:07;75566.94;;;-143.00;48.32
14269;BME280;7218;51.480;7.006;2023-11-21T01:43:36;75580.94;;;-143.00;48.47
14269;BME280;7218;51.480;7.006;2023-11-21T01:46:03;75582.91;;;-143.00;48.60
14269;BME280;7218;51.480;7.006;2023-11-21T01:48:32;75578.94;;;-143.00;48.29
14269;BME280;7218;51.480;7.006;2023-11-21T01:51:00;75578.94;;;-143.00;48.53
14269;BME280;7218;51.480;7.006;2023-11-21T01:53:27;75582.91;;;-143.00;48.22
14269;BME280;7218;51.480;7.006;2023-11-21T01:55:55;75564.97;;;-143.00;48.05
14269;BME280;7218;51.480;7.006;2023-11-21T01:58:22;75568.94;;;-143.00;47.86
14269;BME280;7218;51.480;7.006;2023-11-21T02:00:49;75584.91;;;-143.00;48.08
14269;BME280;7218;51.480;7.006;2023-11-21T02:03:16;75578.94;;;-143.00;47.91
14269;BME280;7218;51.480;7.006;2023-11-21T02:05:44;75543.00;;;-143.00;47.35
14269;BME280;7218;51.480;7.006;2023-11-21T02:08:10;75592.91;;;-143.00;47.90
14269;BME280;7218;51.480;7.006;2023-11-21T02:10:37;75594.91;;;-143.00;47.64
14269;BME280;7218;51.480;7.006;2023-11-21T02:13:03;75594.91;;;-143.00;48.15
14269;BME280;7218;51.480;7.006;2023-11-21T02:15:31;75586.91;;;-143.00;47.84
14269;BME280;7218;51.480;7.006;2023-11-21T02:17:58;75598.88;;;-143.00;48.02
14269;BME280;7218;51.480;7.006;2023-11-21T02:20:26;75590.91;;;-143.00;48.02
14269;BME280;7218;51.480;7.006;2023-11-21T02:22:56;75574.94;;;-143.00;48.01
14269;BME280;7218;51.480;7.006;2023-11-21T02:25:24;75598.88;;;-143.00;47.97
14269;BME280;7218;51.480;7.006;2023-11-21T02:27:51;75594.91;;;-143.00;47.76
14269;BME280;7218;51.480;7.006;2023-11-21T02:30:20;75604.88;;;-143.00;47.98
14269;BME280;7218;51.480;7.006;2023-11-21T02:32:46;75594.91;;;-143.00;48.19
14269;BME280;7218;51.480;7.006;2023-11-21T02:35:13;75594.91;;;-143.00;48.04
14269;BME280;7218;51.480;7.006;2023-11-21T02:37:41;75592.91;;;-143.00;47.92
14269;BME280;7218;51.480;7.006;2023-11-21T02:40:10;75560.97;;;-143.00;47.63
14269;BME280;7218;51.480;7.006;2023-11-21T02:42:37;75570.94;;;-143.00;47.74
14269;BME280;7218;51.480;7.006;2023-11-21T02:45:05;75550.97;;;-143.00;47.23
14269;BME280;7218;51.480;7.006;2023-11-21T02:47:32;75574.94;;;-143.00;47.56
14269;BME280;7218;51.480;7.006;2023-11-21T02:49:59;75574.94;;;-143.00;47.21
14269;BME280;7218;51.480;7.006;2023-11-21T02:52:25;75578.94;;;-143.00;47.34
14269;BME280;7218;51.480;7.006;2023-11-21T02:54:52;75590.91;;;-143.00;47.71
14269;BME280;7218;51.480;7.006;2023-11-21T02:57:20;75552.97;;;-143.00;47.38
14269;BME280;7218;51.480;7.006;2023-11-21T02:59:46;75570.94;;;-143.00;47.48
14269;BME280;7218;51.480;7.006;2023-11-21T03:02:13;75568.94;;;-143.00;47.43
14269;BME280;7218;51.480;7.006;2023-11-21T03:04:40;75574.94;;;-143.00;47.27
14269;BME280;7218;51.480;7.006;2023-11-21T03:07:07;75562.97;;;-143.00;47.05
14269;BME280;7218;51.480;7.006;2023-11-21T03:09:34;75566.94;;;-143.00;46.90
14269;BME280;7218;51.480;7.006;2023-11-21T03:12:01;75582.91;;;-143.00;46.92
14269;BME280;7218;51.480;7.006;2023-11-21T03:14:29;75564.97;;;-143.00;46.70
14269;BME280;7218;51.480;7.006;2023-11-21T03:16:55;75586.91;;;-143.00;46.98
14269;BME280;7218;51.480;7.006;2023-11-21T03:19:21;75588.91;;;-143.00;47.03
14269;BME280;7218;51.480;7.006;2023-11-21T03:21:48;75590.91;;;-143.00;46.96
14269;BME280;7218;51.480;7.006;2023-11-21T03:24:15;75602.88;;;-143.00;47.02
14269;BME280;7218;51.480;7.006;2023-11-21T03:26:44;75558.97;;;-143.00;46.59
14269;BME280;7218;51.480;7.006;2023-11-21T03:29:11;75592.91;;;-143.00;46.94
14269;BME280;7218;51.480;7.006;2023-11-21T03:31:40;75580.94;;;-143.00;46.83
14269;BME280;7218;51.480;7.006;2023-11-21T03:34:06;75628.84;;;-143.00;47.21
14269;BME280;7218;51.480;7.006;2023-11-21T03:36:33;75624.84;;;-143.00;46.79
14269;BME280;7218;51.480;7.006;2023-11-21T03:38:59;75618.84;;;-143.00;47.22
14269;BME280;7218;51.480;7.006;2023-11-21T03:41:26;75616.84;;;-143.00;47.19
14269;BME280;7218;51.480;7.006;2023-11-21T03:43:52;75632.81;;;-143.00;46.93
14269;BME280;7218;51.480;7.006;2023-11-21T03:46:19;75632.81;;;-143.00;46.92
14269;BME280;7218;51.480;7.006;2023-11-21T03:48:46;75608.88;;;-143.00;46.88
14269;BME280;7218;51.480;7.006;2023-11-21T03:51:13;75630.81;;;-143.00;46.66
14269;BME280;7218;51.480;7.006;2023-11-21T03:53:39;75618.84;;;-143.00;46.85
14269;BME280;7218;51.480;7.006;2023-11-21T03:56:06;75610.88;;;-143.00;46.85
14269;BME280;7218;51.480;7.006;2023-11-21T03:58:33;75654.78;;;-143.00;47.08
14269;BME280;7218;51.480;7.006;2023-11-21T04:00:59;75632.81;;;-143.00;46.85
14269;BME280;7218;51.480;7.006;2023-11-21T04:03:26;75650.78;;;-143.00;47.04
14269;BME280;7218;51.480;7.006;2023-11-21T04:05:54;75618.84;;;-143.00;46.91
14269;BME280;7218;51.480;7.006;2023-11-21T04:08:21;75634.81;;;-143.00;47.18
14269;BME280;7218;51.480;7.006;2023-11-21T04:10:47;75630.81;;;-143.00;46.79
14269;BME280;7218;51.480;7.006;2023-11-21T04:13:14;75636.81;;;-143.00;47.08
14269;BME280;7218;51.480;7.006;2023-11-21T04:15:40;75632.81;;;-143.00;46.88
14269;BME280;7218;51.480;7.006;2023-11-21T04:18:07;75622.84;;;-143.00;46.83
14269;BME280;7218;51.480;7.006;2023-11-21T04:20:33;75624.84;;;-143.00;46.75
14269;BME280;7218;51.480;7.006;2023-11-21T04:23:01;75634.81;;;-143.00;46.83
14269;BME280;7218;51.480;7.006;2023-11-21T04:25:28;75662.75;;;-143.00;47.18
14269;BME280;7218;51.480;7.006;2023-11-21T04:27:55;75672.75;;;-143.00;47.36
14269;BME280;7218;51.480;7.006;2023-11-21T04:30:21;75694.69;;;-143.00;47.74
14269;BME280;7218;51.480;7.006;2023-11-21T04:32:47;75678.72;;;-143.00;47.36
14269;BME280;7218;51.480;7.006;2023-11-21T04:35:14;75666.75;;;-143.00;47.25
14269;BME280;7218;51.480;7.006;2023-11-21T04:37:40;75672.75;;;-143.00;47.48
14269;BME280;7218;51.480;7.006;2023-11-21T04:40:10;75648.78;;;-143.00;47.27
14269;BME280;7218;51.480;7.006;2023-11-21T04:42:36;75688.72;;;-143.00;47.29
14269;BME280;7218;51.480;7.006;2023-11-21T04:45:04;75638.81;;;-143.00;46.59
14269;BME280;7218;51.480;7.006;2023-11-21T04:47:34;75648.78;;;-143.00;46.71
14269;BME280;7218;51.480;7.006;2023-11-21T04:50:00;75666.75;;;-143.00;46.95
14269;BME280;7218;51.480;7.006;2023-11-21T04:52:27;75662.75;;;-143.00;46.77
14269;BME280;7218;51.480;7.006;2023-11-21T04:54:53;75680.72;;;-143.00;46.90
14269;BME280;7218;51.480;7.006;2023-11-21T04:57:22;75672.75;;;-143.00;47.15
14269;BME280;7218;51.480;7.006;2023-11-21T04:59:49;75692.72;;;-143.00;47.54
14269;BME280;7218;51.480;7.006;2023-11-21T05:02:15;75666.75;;;-143.00;47.15
14269;BME280;7218;51.480;7.006;2023-11-21T05:04:43;75662.75;;;-143.00;46.86
14269;BME280;7218;51.480;7.006;2023-11-21T05:07:10;75666.75;;;-143.00;46.97
14269;BME280;7218;51.480;7.006;2023-11-21T05:09:41;75650.78;;;-143.00;46.59
14269;BME280;7218;51.480;7.006;2023-11-21T05:12:09;75688.72;;;-143.00;47.08
14269;BME280;7218;51.480;7.006;2023-11-21T05:14:37;75654.78;;;-143.00;46.84
14269;BME280;7218;51.480;7.006;2023-11-21T05:17:03;75672.75;;;-143.00;47.11
14269;BME280;7218;51.480;7.006;2023-11-21T05:19:30;75678.72;;;-143.00;47.13
14269;BME280;7218;51.480;7.006;2023-11-21T05:21:57;75730.63;;;-143.00;47.94
14269;BME280;7218;51.480;7.006;2023-11-21T05:24:24;75714.66;;;-143.00;47.68
14269;BME280;7218;51.480;7.006;2023-11-21T05:26:51;75732.63;;;-143.00;47.61
14269;BME280;7218;51.480;7.006;2023-11-21T05:29:18;75710.66;;;-143.00;47.51
14269;BME280;7218;51.480;7.006;2023-11-21T05:31:45;75686.72;;;-143.00;47.41
14269;BME280;7218;51.480;7.006;2023-11-21T05:34:12;75706.69;;;-143.00;47.11
14269;BME280;7218;51.480;7.006;2023-11-21T05:36:38;75714.66;;;-143.00;47.46
14269;BME280;7218;51.480;7.006;2023-11-21T05:39:05;75718.66;;;-143.00;47.59
14269;BME280;7218;51.480;7.006;2023-11-21T05:41:31;75708.69;;;-143.00;47.55
14269;BME280;7218;51.480;7.006;2023-11-21T05:43:58;75708.69;;;-143.00;47.45
14269;BME280;7218;51.480;7.006;2023-11-21T05:46:24;75702.69;;;-143.00;47.42
14269;BME280;7218;51.480;7.006;2023-11-21T05:48:52;75688.72;;;-143.00;47.30
14269;BME280;7218;51.480;7.006;2023-11-21T05:51:18;75706.69;;;-143.00;47.57
14269;BME280;7218;51.480;7.006;2023-11-21T05:53:45;75740.63;;;-143.00;48.11
14269;BME280;7218;51.480;7.006;2023-11-21T05:56:11;75710.66;;;-143.00;47.12
14269;BME280;7218;51.480;7.006;2023-11-21T05:58:38;75706.69;;;-143.00;47.06
14269;BME280;7218;51.480;7.006;2023-11-21T06:01:05;75698.69;;;-143.00;46.91
14269;BME280;7218;51.480;7.006;2023-11-21T06:03:32;75704.69;;;-143.00;47.05
14269;BME280;7218;51.480;7.006;2023-11-21T06:06:00;75688.72;;;-143.00;46.78
14269;BME280;7218;51.480;7.006;2023-11-21T06:08:27;75706.69;;;-143.00;46.88
14269;BME280;7218;51.480;7.006;2023-11-21T06:10:53;75718.66;;;-143.00;46.98
14269;BME280;7218;51.480;7.006;2023-11-21T06:13:20;75764.56;;;-143.00;47.68
14269;BME280;7218;51.480;7.006;2023-11-21T06:15:49;75738.63;;;-143.00;47.83
14269;BME280;7218;51.480;7.006;2023-11-21T06:18:16;75730.63;;;-143.00;47.41
14269;BME280;7218;51.480;7.006;2023-11-21T06:20:44;75732.63;;;-143.00;47.37
14269;BME280;7218;51.480;7.006;2023-11-21T06:23:12;75722.66;;;-143.00;47.22
14269;BME280;7218;51.480;7.006;2023-11-21T06:25:39;75778.53;;;-143.00;48.07
14269;BME280;7218;51.480;7.006;2023-11-21T06:28:06;75754.59;;;-143.00;47.54
14269;BME280;7218;51.480;7.006;2023-11-21T06:30:32;75774.53;;;-143.00;47.99
14269;BME280;7218;51.480;7.006;2023-11-21T06:32:59;75790.53;;;-143.00;48.18
14269;BME280;7218;51.480;7.006;2023-11-21T06:35:26;75762.56;;;-143.00;47.81
14269;BME280;7218;51.480;7.006;2023-11-21T06:37:55;75764.56;;;-143.00;47.99
14269;BME280;7218;51.480;7.006;2023-11-21T06:40:23;75752.59;;;-143.00;47.96
14269;BME280;7218;51.480;7.006;2023-11-21T06:42:50;75760.56;;;-143.00;48.01
14269;BME280;7218;51.480;7.006;2023-11-21T06:45:17;75754.59;;;-143.00;47.98
14269;BME280;7218;51.480;7.006;2023-11-21T06:47:43;75760.56;;;-143.00;47.76
14269;BME280;7218;51.480;7.006;2023-11-21T06:50:10;75758.59;;;-143.00;47.74
14269;BME280;7218;51.480;7.006;2023-11-21T06:52:36;75758.59;;;-143.00;47.86
14269;BME280;7218;51.480;7.006;2023-11-21T06:55:04;75766.56;;;-143.00;47.66
14269;BME280;7218;51.480;7.006;2023-11-21T06:57:34;75770.56;;;-143.00;47.74
14269;BME280;7218;51.480;7.006;2023-11-21T07:00:01;75786.53;;;-143.00;47.81
14269;BME280;7218;51.480;7.006;2023-11-21T07:02:28;75792.50;;;-143.00;48.30
14269;BME280;7218;51.480;7.006;2023-11-21T07:04:54;75782.53;;;-143.00;47.86
14269;BME280;7218;51.480;7.006;2023-11-21T07:07:21;75778.53;;;-143.00;48.04
14269;BME280;7218;51.480;7.006;2023-11-21T07:09:47;75774.53;;;-143.00;47.50
14269;BME280;7218;51.480;7.006;2023-11-21T07:12:14;75798.50;;;-143.00;48.23
14269;BME280;7218;51.480;7.006;2023-11-21T07:14:42;75774.53;;;-143.00;47.86
14269;BME280;7218;51.480;7.006;2023-11-21T07:17:10;75786.53;;;-143.00;48.02
14269;BME280;7218;51.480;7.006;2023-11-21T07:19:37;75776.53;;;-143.00;47.81
14269;BME280;7218;51.480;7.006;2023-11-21T07:22:03;75784.53;;;-143.00;47.86
14269;BME280;7218;51.480;7.006;2023-11-21T07:24:31;75810.47;;;-143.00;48.19
14269;BME280;7218;51.480;7.006;2023-11-21T07:26:57;75858.38;;;-143.00;49.37
14269;BME280;7218;51.480;7.006;2023-11-21T07:29:24;75908.28;;;-143.00;50.82
14269;BME280;7218;51.480;7.006;2023-11-21T07:31:53;75826.44;;;-143.00;49.43
14269;BME280;7218;51.480;7.006;2023-11-21T07:34:19;75832.44;;;-143.00;49.54
14269;BME280;7218;51.480;7.006;2023-11-21T07:36:46;75874.34;;;-143.00;50.09
14269;BME280;7218;51.480;7.006;2023-11-21T07:39:12;75870.38;;;-143.00;49.83
14269;BME280;7218;51.480;7.006;2023-11-21T07:41:41;75856.41;;;-143.00;49.63
14269;BME280;7218;51.480;7.006;2023-11-21T07:44:14;75834.44;;;-143.00;49.50
14269;BME280;7218;51.480;7.006;2023-11-21T07:46:40;75890.31;;;-143.00;50.87
14269;BME280;7218;51.480;7.006;2023-11-21T07:49:08;75818.47;;;-143.00;49.80
14269;BME280;7218;51.480;7.006;2023-11-21T07:51:35;75896.31;;;-143.00;50.72
14269;BME280;7218;51.480;7.006;2023-11-21T07:54:01;75958.19;;;-143.00;52.04
14269;BME280;7218;51.480;7.006;2023-11-21T07:56:28;75834.44;;;-143.00;49.65
14269;BME280;7218;51.480;7.006;2023-11-21T07:58:54;75830.44;;;-143.00;49.46
14269;BME280;7218;51.480;7.006;2023-11-21T08:01:21;75930.25;;;-143.00;51.03
14269;BME280;7218;51.480;7.006;2023-11-21T08:03:47;75886.34;;;-143.00;50.91
14269;BME280;7218;51.480;7.006;2023-11-21T08:06:18;75818.47;;;-143.00;49.48
14269;BME280;7218;51.480;7.006;2023-11-21T08:08:45;75818.47;;;-143.00;49.38
14269;BME280;7218;51.480;7.006;2023-11-21T08:11:11;75918.28;;;-143.00;50.57
14269;BME280;7218;51.480;7.006;2023-11-21T08:13:38;75850.41;;;-143.00;49.50
14269;BME280;7218;51.480;7.006;2023-11-21T08:16:05;75840.44;;;-143.00;49.05
14269;BME280;7218;51.480;7.006;2023-11-21T08:18:32;75828.44;;;-143.00;48.78
14269;BME280;7218;51.480;7.006;2023-11-21T08:20:59;75806.50;;;-143.00;48.65
14269;BME280;7218;51.480;7.006;2023-11-21T08:23:27;75818.47;;;-143.00;48.63
14269;BME280;7218;51.480;7.006;2023-11-21T08:25:54;75818.47;;;-143.00;48.60
14269;BME280;7218;51.480;7.006;2023-11-21T08:28:21;75802.50;;;-143.00;48.22
14269;BME280;7218;51.480;7.006;2023-11-21T08:30:48;75806.50;;;-143.00;48.24
14269;BME280;7218;51.480;7.006;2023-11-21T08:33:15;75856.41;;;-143.00;48.67
14269;BME280;7218;51.480;7.006;2023-11-21T08:35:41;75840.44;;;-143.00;48.69
14269;BME280;7218;51.480;7.006;2023-11-21T08:38:08;75830.44;;;-143.00;48.23
14269;BME280;7218;51.480;7.006;2023-11-21T08:40:36;75800.50;;;-143.00;48.12
14269;BME280;7218;51.480;7.006;2023-11-21T08:43:03;75826.44;;;-143.00;48.15
14269;BME280;7218;51.480;7.006;2023-11-21T08:45:31;75834.44;;;-143.00;48.24
14269;BME280;7218;51.480;7.006;2023-11-21T08:47:59;75822.47;;;-143.00;48.20
14269;BME280;7218;51.480;7.006;2023-11-21T08:50:25;75814.47;;;-143.00;48.37
14269;BME280;7218;51.480;7.006;2023-11-21T08:52:52;75824.44;;;-143.00;48.17
14269;BME280;7218;51.480;7.006;2023-11-21T08:55:18;75798.50;;;-143.00;47.77
14269;BME280;7218;51.480;7.006;2023-11-21T08:57:46;75780.53;;;-143.00;48.01
14269;BME280;7218;51.480;7.006;2023-11-21T09:00:13;75798.50;;;-143.00;47.69
14269;BME280;7218;51.480;7.006;2023-11-21T09:02:42;75778.53;;;-143.00;47.60
14269;BME280;7218;51.480;7.006;2023-11-21T09:05:09;75802.50;;;-143.00;47.56
14269;BME280;7218;51.480;7.006;2023-11-21T09:07:36;75830.44;;;-143.00;48.03
14269;BME280;7218;51.480;7.006;2023-11-21T09:10:04;75846.41;;;-143.00;48.47
14269;BME280;7218;51.480;7.006;2023-11-21T09:12:32;75842.41;;;-143.00;48.44
14269;BME280;7218;51.480;7.006;2023-11-21T09:15:02;75796.50;;;-143.00;47.42
14269;BME280;7218;51.480;7.006;2023-11-21T09:17:29;75804.50;;;-143.00;47.73
14269;BME280;7218;51.480;7.006;2023-11-21T09:19:56;75800.50;;;-143.00;47.82
14269;BME280;7218;51.480;7.006;2023-11-21T09:22:22;75802.50;;;-143.00;47.58
14269;BME280;7218;51.480;7.006;2023-11-21T09:24:50;75788.53;;;-143.00;46.72
14269;BME280;7218;51.480;7.006;2023-11-21T09:27:17;75794.50;;;-143.00;46.97
14269;BME280;7218;51.480;7.006;2023-11-21T09:29:43;75786.53;;;-143.00;46.65
14269;BME280;7218;51.480;7.006;2023-11-21T09:32:12;75768.56;;;-143.00;46.90
14269;BME280;7218;51.480;7.006;2023-11-21T09:34:39;75798.50;;;-143.00;46.55
14269;BME280;7218;51.480;7.006;2023-11-21T09:37:07;75814.47;;;-143.00;46.78
14269;BME280;7218;51.480;7.006;2023-11-21T09:39:33;75814.47;;;-143.00;47.19
14269;BME280;7218;51.480;7.006;2023-11-21T09:42:07;75810.47;;;-143.00;47.00
14269;BME280;7218;51.480;7.006;2023-11-21T09:44:44;75822.47;;;-143.00;47.21
14269;BME280;7218;51.480;7.006;2023-11-21T09:47:15;75804.50;;;-143.00;47.48
14269;BME280;7218;51.480;7.006;2023-11-21T09:49:46;75790.53;;;-143.00;47.49
14269;BME280;7218;51.480;7.006;2023-11-21T09:52:19;75784.53;;;-143.00;46.87
14269;BME280;7218;51.480;7.006;2023-11-21T09:54:49;75800.50;;;-143.00;46.89
14269;BME280;7218;51.480;7.006;2023-11-21T09:57:17;75794.50;;;-143.00;46.94
14269;BME280;7218;51.480;7.006;2023-11-21T09:59:44;75794.50;;;-143.00;47.39
14269;BME280;7218;51.480;7.006;2023-11-21T10:02:11;75788.53;;;-143.00;47.33
14269;BME280;7218;51.480;7.006;2023-11-21T10:04:40;75748.59;;;-143.00;46.79
14269;BME280;7218;51.480;7.006;2023-11-21T10:07:06;75760.56;;;-143.00;46.75
14269;BME280;7218;51.480;7.006;2023-11-21T10:09:35;75728.63;;;-143.00;46.50
14269;BME280;7218;51.480;7.006;2023-11-21T10:12:02;75714.66;;;-143.00;45.46
14269;BME280;7218;51.480;7.006;2023-11-21T10:14:31;75712.66;;;-143.00;45.44
14269;BME280;7218;51.480;7.006;2023-11-21T10:16:59;75724.66;;;-143.00;45.54
14269;BME280;7218;51.480;7.006;2023-11-21T10:19:26;75776.53;;;-143.00;45.74
14269;BME280;7218;51.480;7.006;2023-11-21T10:21:54;75856.41;;;-143.00;47.81
14269;BME280;7218;51.480;7.006;2023-11-21T10:24:22;75920.28;;;-143.00;49.42
14269;BME280;7218;51.480;7.006;2023-11-21T10:26:49;75786.53;;;-143.00;46.94
14269;BME280;7218;51.480;7.006;2023-11-21T10:29:17;75730.63;;;-143.00;46.43
14269;BME280;7218;51.480;7.006;2023-11-21T10:31:44;75702.69;;;-143.00;45.76
14269;BME280;7218;51.480;7.006;2023-11-21T10:34:14;75692.72;;;-143.00;44.83
14269;BME280;7218;51.480;7.006;2023-11-21T10:36:41;75808.47;;;-143.00;45.95
14269;BME280;7218;51.480;7.006;2023-11-21T10:39:09;75792.50;;;-143.00;46.07
14269;BME280;7218;51.480;7.006;2023-11-21T10:41:36;75744.59;;;-143.00;45.81
14269;BME280;7218;51.480;7.006;2023-11-21T10:44:03;75702.69;;;-143.00;45.74
14269;BME280;7218;51.480;7.006;2023-11-21T10:46:32;75690.72;;;-143.00;45.06
14269;BME280;7218;51.480;7.006;2023-11-21T10:48:59;75686.72;;;-143.00;45.25
14269;BME280;7218;51.480;7.006;2023-11-21T10:51:27;75700.69;;;-143.00;44.65
14269;BME280;7218;51.480;7.006;2023-11-21T10:53:54;75718.66;;;-143.00;44.82
14269;BME280;7218;51.480;7.006;2023-11-21T10:56:30;75718.66;;;-143.00;44.98
14269;BME280;7218;51.480;7.006;2023-11-21T10:59:00;75754.59;;;-143.00;45.83
14269;BME280;7218;51.480;7.006;2023-11-21T11:01:28;75714.66;;;-143.00;45.53
14269;BME280;7218;51.480;7.006;2023-11-21T11:03:57;75748.59;;;-143.00;45.02
14269;BME280;7218;51.480;7.006;2023-11-21T11:06:26;75726.63;;;-143.00;45.31
14269;BME280;7218;51.480;7.006;2023-11-21T11:08:54;75740.63;;;-143.00;45.05
14269;BME280;7218;51.480;7.006;2023-11-21T11:11:21;75758.59;;;-143.00;45.21
14269;BME280;7218;51.480;7.006;2023-11-21T11:13:49;75680.72;;;-143.00;44.83
14269;BME280;7218;51.480;7.006;2023-11-21T11:16:16;75684.72;;;-143.00;44.45
14269;BME280;7218;51.480;7.006;2023-11-21T11:18:43;75678.72;;;-143.00;44.82
14269;BME280;7218;51.480;7.006;2023-11-21T11:21:23;75662.75;;;-143.00;43.99
14269;BME280;7218;51.480;7.006;2023-11-21T11:24:13;75674.75;;;-143.00;43.99
14269;BME280;7218;51.480;7.006;2023-11-21T11:26:48;75654.78;;;-143.00;43.94
14269;BME280;7218;51.480;7.006;2023-11-21T11:29:27;75646.78;;;-143.00;43.93
14269;BME280;7218;51.480;7.006;2023-11-21T11:32:07;75636.81;;;-143.00;43.45
14269;BME280;7218;51.480;7.006;2023-11-21T11:34:40;75618.84;;;-143.00;43.42
14269;BME280;7218;51.480;7.006;2023-11-21T11:37:08;75650.78;;;-143.00;43.38
14269;BME280;7218;51.480;7.006;2023-11-21T11:39:37;75668.75;;;-143.00;43.33
14269;BME280;7218;51.480;7.006;2023-11-21T11:42:06;75654.78;;;-143.00;43.40
14269;BME280;7218;51.480;7.006;2023-11-21T11:44:55;75664.75;;;-143.00;43.97
14269;BME280;7218;51.480;7.006;2023-11-21T11:47:24;75702.69;;;-143.00;43.95
14269;BME280;7218;51.480;7.006;2023-11-21T11:50:00;75658.78;;;-143.00;43.50
14269;BME280;7218;51.480;7.006;2023-11-21T11:52:37;75684.72;;;-143.00;43.88
14269;BME280;7218;51.480;7.006;2023-11-21T11:55:06;75704.69;;;-143.00;44.25
14269;BME280;7218;51.480;7.006;2023-11-21T11:57:35;75722.66;;;-143.00;44.32
14269;BME280;7218;51.480;7.006;2023-11-21T12:00:13;75710.66;;;-143.00;44.19
14269;BME280;7218;51.480;7.006;2023-11-21T12:02:43;75728.63;;;-143.00;44.54
14269;BME280;7218;51.480;7.006;2023-11-21T12:05:11;75702.69;;;-143.00;44.58
14269;BME280;7218;51.480;7.006;2023-11-21T12:07:45;75702.69;;;-143.00;44.06
14269;BME280;7218;51.480;7.006;2023-11-21T12:10:14;75740.63;;;-143.00;44.47
14269;BME280;7218;51.480;7.006;2023-11-21T12:12:47;75742.59;;;-143.00;44.67
14269;BME280;7218;51.480;7.006;2023-11-21T12:15:15;75762.56;;;-143.00;45.07
14269;BME280;7218;51.480;7.006;2023-11-21T12:17:43;75762.56;;;-143.00;45.25
14269;BME280;7218;51.480;7.006;2023-11-21T12:20:11;75748.59;;;-143.00;45.15
14269;BME280;7218;51.480;7.006;2023-11-21T12:22:44;75742.59;;;-143.00;44.75
14269;BME280;7218;51.480;7.006;2023-11-21T12:25:14;75768.56;;;-143.00;45.25
14269;BME280;7218;51.480;7.006;2023-11-21T12:27:44;75832.44;;;-143.00;45.78
14269;BME280;7218;51.480;7.006;2023-11-21T12:30:12;75780.53;;;-143.00;45.37
14269;BME280;7218;51.480;7.006;2023-11-21T12:32:42;75810.47;;;-143.00;45.85
14269;BME280;7218;51.480;7.006;2023-11-21T12:35:10;75824.44;;;-143.00;46.19
14269;BME280;7218;51.480;7.006;2023-11-21T12:37:37;75802.50;;;-143.00;46.02
14269;BME280;7218;51.480;7.006;2023-11-21T12:40:06;75786.53;;;-143.00;45.53
14269;BME280;7218;51.480;7.006;2023-11-21T12:42:33;75818.47;;;-143.00;45.55
14269;BME280;7218;51.480;7.006;2023-11-21T12:45:24;75798.50;;;-143.00;45.57
14269;BME280;7218;51.480;7.006;2023-11-21T12:47:55;75840.44;;;-143.00;46.30
14269;BME280;7218;51.480;7.006;2023-11-21T12:50:25;75884.34;;;-143.00;46.97
14269;BME280;7218;51.480;7.006;2023-11-21T12:52:57;75872.38;;;-143.00;46.73